Terminal Aerodrome Forecast
Issued by NWS

Home | Current Version | Previous Version | Text Only | Print | Product List | Glossary Off
Versions: 1 2 3 4 5 6 7 8 9 10 11 12 13 14 15 16 17

906
FTUS41 KCLE 231139
TAFFDY
TAF
KFDY 231139Z 2312/2412 26003KT P6SM SCT100 BKN250
     FM231600 32005KT P6SM SCT050 BKN100
     FM232100 01010KT P6SM BKN060
     FM240300 04008KT 6SM BR BKN012=

USA.gov is the U.S. government's official web portal to all federal, state and local government web resources and services.